Time;durP1;ratioP1;P1;durP2;ratioP2;P2;SDS_P1;SDS_P2;PMS_P1;PMS_P2;Temp;Humidity;BMP_temperature;BMP_pressure;BME280_temperature;BME280_humidity;BME280_pressure;Samples;Min_cycle;Max_cycle;Signal;HPM_P1;HPM_P2
2021/04/03 00:00:33;;;;;;;;;;;;;;;;;;1494786;39;19932;-77
2021/04/03 00:01:34;;;;;;;;;;;;;;;;;;1490849;39;20570;-77
2021/04/03 00:02:35;;;;;;;;;;;;;;;;;;1491445;39;19959;-77
2021/04/03 00:03:36;;;;;;;;;;;;;;;;;;1494787;39;19944;-77
2021/04/03 00:04:37;;;;;;;;;;;;;;;;;;1490698;39;20030;-78
2021/04/03 00:05:37;;;;;;;;;;;;;;;;;;1490673;39;20188;-78
2021/04/03 00:06:38;;;;;;;;;;;;;;;;;;1491613;39;20043;-79
2021/04/03 00:07:39;;;;;;;;;;;;;;;;;;1494835;39;19928;-78
2021/04/03 00:08:40;;;;;;;;;;;;;;;;;;1494722;39;20483;-78
2021/04/03 00:09:41;;;;;;;;;;;;;;;;;;1494700;39;19936;-79
2021/04/03 00:10:42;;;;;;;;;;;;;;;;;;1495050;39;19980;-77
2021/04/03 00:11:43;;;;;;;;;;;;;;;;;;1494760;39;19943;-78
2021/04/03 00:12:44;;;;;;;;;;;;;;;;;;1495043;39;19955;-78
2021/04/03 00:13:45;;;;;;;;;;;;;;;;;;1494886;39;20010;-78
2021/04/03 00:14:46;;;;;;;;;;;;;;;;;;1495654;39;19928;-78
2021/04/03 00:15:47;;;;;;;;;;;;;;;;;;1495543;39;19998;-78
2021/04/03 00:16:48;;;;;;;;;;;;;;;;;;1495718;39;20256;-77
2021/04/03 00:17:49;;;;;;;;;;;;;;;;;;1495239;39;19928;-78
2021/04/03 00:18:50;;;;;;;;;;;;;;;;;;1495013;39;20195;-77
2021/04/03 00:19:54;;;;;;;;;;;;;;;;;;1490426;39;19932;-76
2021/04/03 00:20:55;;;;;;;;;;;;;;;;;;1495124;39;20028;-76
2021/04/03 00:21:57;;;;;;;;;;;;;;;;;;1494576;39;20380;-75
2021/04/03 00:22:58;;;;;;;;;;;;;;;;;;1495550;39;20039;-75
2021/04/03 00:23:59;;;;;;;;;;;;;;;;;;1495189;39;20534;-75
2021/04/03 00:25:00;;;;;;;;;;;;;;;;;;1495288;39;19955;-75
2021/04/03 00:26:01;;;;;;;;;;;;;;;;;;1495534;39;19927;-75
2021/04/03 00:27:02;;;;;;;;;;;;;;;;;;1495122;39;19942;-77
2021/04/03 00:28:04;;;;;;;;;;;;;;;;;;1494714;39;20315;-77
2021/04/03 00:29:05;;;;;;;;;;;;;;;;;;1495540;39;20139;-77
2021/04/03 00:30:15;;;;;;;;;;;;;;;;;;1495584;39;19928;-77
2021/04/03 00:31:18;;;;;;;;;;;;;;;;;;1495941;39;20043;-76
2021/04/03 00:32:19;;;;;;;;;;;;;;;;;;1495418;39;19955;-76
2021/04/03 00:33:20;;;;;;;;;;;;;;;;;;1495561;39;20311;-76
2021/04/03 00:34:21;;;;;;;;;;;;;;;;;;1494340;39;20039;-77
2021/04/03 00:35:23;;;;;;;;;;;;;;;;;;1495620;39;20283;-77
2021/04/03 00:36:24;;;;;;;;;;;;;;;;;;1494747;39;19951;-76
2021/04/03 00:37:25;;;;;;;;;;;;;;;;;;1495029;39;19932;-76
2021/04/03 00:38:26;;;;;;;;;;;;;;;;;;1495440;39;19971;-76
2021/04/03 00:39:27;;;;;;;;;;;;;;;;;;1495335;39;19947;-75
2021/04/03 00:40:28;;;;;;;;;;;;;;;;;;1494706;39;20044;-75
2021/04/03 00:41:29;;;;;;;;;;;;;;;;;;1495046;39;20284;-76
2021/04/03 00:42:30;;;;;;;;;;;;;;;;;;1494907;39;19927;-76
2021/04/03 00:43:31;;;;;;;;;;;;;;;;;;1494990;39;19931;-76
2021/04/03 00:44:33;;;;;;;;;;;;;;;;;;1495305;39;19931;-76
2021/04/03 00:45:35;;;;;;;;;;;;;;;;;;1494839;39;20043;-77
2021/04/03 00:46:36;;;;;;;;;;;;;;;;;;1494738;39;20146;-76
2021/04/03 00:47:37;;;;;;;;;;;;;;;;;;1493962;39;20476;-76
2021/04/03 00:48:38;;;;;;;;;;;;;;;;;;1494737;39;20413;-77
2021/04/03 00:49:41;;;;;;;;;;;;;;;;;;1495593;39;20043;-76
2021/04/03 00:50:43;;;;;;;;;;;;;;;;;;1495379;39;20047;-77
2021/04/03 00:51:44;;;;;;;;;;;;;;;;;;1494924;39;20528;-77
2021/04/03 00:52:45;;;;;;;;;;;;;;;;;;1494873;39;19932;-77
2021/04/03 00:53:46;;;;;;;;;;;;;;;;;;1495452;39;19927;-77
2021/04/03 00:54:47;;;;;;;;;;;;;;;;;;1490528;39;19952;-76
2021/04/03 00:55:48;;;;;;;;;;;;;;;;;;1486641;39;20523;-76
2021/04/03 00:56:49;;;;;;;;;;;;;;;;;;1494891;39;19928;-77
2021/04/03 00:57:50;;;;;;;;;;;;;;;;;;1495492;39;19928;-77
2021/04/03 00:58:52;;;;;;;;;;;;;;;;;;1495409;39;19951;-77
2021/04/03 00:59:53;;;;;;;;;;;;;;;;;;1493708;39;20014;-78
2021/04/03 01:00:54;;;;;;;;;;;;;;;;;;1495022;39;19998;-77
2021/04/03 01:01:55;;;;;;;;;;;;;;;;;;1495390;39;20051;-77
2021/04/03 01:02:56;;;;;;;;;;;;;;;;;;1494764;39;20191;-77
2021/04/03 01:03:57;;;;;;;;;;;;;;;;;;1490475;39;19939;-77
2021/04/03 01:04:59;;;;;;;;;;;;;;;;;;1494686;39;19955;-78
2021/04/03 01:06:00;;;;;;;;;;;;;;;;;;1495255;39;19955;-77
2021/04/03 01:07:01;;;;;;;;;;;;;;;;;;1495558;39;19955;-77
2021/04/03 01:08:02;;;;;;;;;;;;;;;;;;1494591;39;20055;-76
2021/04/03 01:09:03;;;;;;;;;;;;;;;;;;1494685;39;20046;-76
2021/04/03 01:10:05;;;;;;;;;;;;;;;;;;1495400;39;20058;-75
2021/04/03 01:11:06;;;;;;;;;;;;;;;;;;1495058;39;20324;-75
2021/04/03 01:12:13;;;;;;;;;;;;;;;;;;1494336;39;19927;-75
2021/04/03 01:13:14;;;;;;;;;;;;;;;;;;1495081;39;20039;-75
2021/04/03 01:14:24;;;;;;;;;;;;;;;;;;1495435;39;20043;-75
2021/04/03 01:15:31;;;;;;;;;;;;;;;;;;1495712;39;19935;-76
2021/04/03 01:16:36;;;;;;;;;;;;;;;;;;1495437;39;20046;-77
2021/04/03 01:17:40;;;;;;;;;;;;;;;;;;1495537;39;20030;-76
2021/04/03 01:18:41;;;;;;;;;;;;;;;;;;1495380;39;20506;-77
2021/04/03 01:19:45;;;;;;;;;;;;;;;;;;1495293;39;19956;-77
2021/04/03 01:21:04;;;;;;;;;;;;;;;;;;1495339;39;20120;-77
2021/04/03 01:22:34;;;;;;;;;;;;;;;;;;1495417;39;19959;-77
2021/04/03 01:23:43;;;;;;;;;;;;;;;;;;1495459;39;20047;-76
2021/04/03 01:24:47;;;;;;;;;;;;;;;;;;1493983;39;20039;-76
2021/04/03 01:26:00;;;;;;;;;;;;;;;;;;1495406;39;19955;-76
2021/04/03 01:27:14;;;;;;;;;;;;;;;;;;1495472;39;20038;-77
2021/04/03 01:28:29;;;;;;;;;;;;;;;;;;1495188;39;19927;-75
2021/04/03 01:29:42;;;;;;;;;;;;;;;;;;1495457;39;19955;-77
2021/04/03 01:30:45;;;;;;;;;;;;;;;;;;1495315;39;19955;-76
2021/04/03 01:31:46;;;;;;;;;;;;;;;;;;1495355;39;19959;-75
2021/04/03 01:32:59;;;;;;;;;;;;;;;;;;1495321;39;20291;-75
2021/04/03 01:34:01;;;;;;;;;;;;;;;;;;1495451;39;19931;-75
2021/04/03 01:35:04;;;;;;;;;;;;;;;;;;1495374;39;19934;-76
2021/04/03 01:36:10;;;;;;;;;;;;;;;;;;1495276;39;19959;-75
2021/04/03 01:37:13;;;;;;;;;;;;;;;;;;1493972;39;19987;-75
2021/04/03 01:38:19;;;;;;;;;;;;;;;;;;1494625;39;20357;-75
2021/04/03 01:39:21;;;;;;;;;;;;;;;;;;1494495;39;20020;-75
2021/04/03 01:40:24;;;;;;;;;;;;;;;;;;1495265;39;20277;-75
2021/04/03 01:41:26;;;;;;;;;;;;;;;;;;1495411;39;19928;-76
2021/04/03 01:42:29;;;;;;;;;;;;;;;;;;1495471;39;20019;-76
2021/04/03 01:43:35;;;;;;;;;;;;;;;;;;1494568;39;19955;-76
2021/04/03 01:44:41;;;;;;;;;;;;;;;;;;1494821;39;20064;-76
2021/04/03 01:45:43;;;;;;;;;;;;;;;;;;1490303;39;19955;-76
2021/04/03 01:46:45;;;;;;;;;;;;;;;;;;1494808;39;20009;-76
2021/04/03 01:47:46;;;;;;;;;;;;;;;;;;1494422;39;19951;-76
2021/04/03 01:48:47;;;;;;;;;;;;;;;;;;1494790;39;20517;-77
2021/04/03 01:49:50;;;;;;;;;;;;;;;;;;1494260;39;19959;-76
2021/04/03 01:50:51;;;;;;;;;;;;;;;;;;1494802;39;19927;-76
2021/04/03 01:51:52;;;;;;;;;;;;;;;;;;1494637;39;20005;-76
2021/04/03 01:52:53;;;;;;;;;;;;;;;;;;1495392;39;19942;-77
2021/04/03 01:53:55;;;;;;;;;;;;;;;;;;1495234;39;20244;-77
2021/04/03 01:54:58;;;;;;;;;;;;;;;;;;1494729;39;19957;-77
2021/04/03 01:56:01;;;;;;;;;;;;;;;;;;1490536;39;19931;-77
2021/04/03 01:57:02;;;;;;;;;;;;;;;;;;1494784;39;19951;-77
2021/04/03 01:58:04;;;;;;;;;;;;;;;;;;1495076;39;20030;-77
2021/04/03 01:59:07;;;;;;;;;;;;;;;;;;1495486;39;19951;-77
2021/04/03 02:00:15;;;;;;;;;;;;;;;;;;1495301;39;20023;-77
2021/04/03 02:01:16;;;;;;;;;;;;;;;;;;1495402;39;19955;-76
2021/04/03 02:02:18;;;;;;;;;;;;;;;;;;1493496;39;20115;-76
2021/04/03 02:03:19;;;;;;;;;;;;;;;;;;1494539;39;19955;-76
2021/04/03 02:04:20;;;;;;;;;;;;;;;;;;1494481;39;20023;-77
2021/04/03 02:05:21;;;;;;;;;;;;;;;;;;1494964;39;20043;-75
2021/04/03 02:06:23;;;;;;;;;;;;;;;;;;1495225;39;19928;-75
2021/04/03 02:07:24;;;;;;;;;;;;;;;;;;1495473;39;19938;-75
2021/04/03 02:08:27;;;;;;;;;;;;;;;;;;1495215;39;19938;-75
2021/04/03 02:09:29;;;;;;;;;;;;;;;;;;1495169;39;20046;-75
2021/04/03 02:10:30;;;;;;;;;;;;;;;;;;1495269;39;20032;-75
2021/04/03 02:11:36;;;;;;;;;;;;;;;;;;1494654;39;19963;-75
2021/04/03 02:12:38;;;;;;;;;;;;;;;;;;1494412;39;19952;-75
2021/04/03 02:13:40;;;;;;;;;;;;;;;;;;1495218;39;19928;-75
2021/04/03 02:14:42;;;;;;;;;;;;;;;;;;1493623;39;20256;-75
2021/04/03 02:15:44;;;;;;;;;;;;;;;;;;1494209;39;19955;-76
2021/04/03 02:16:45;;;;;;;;;;;;;;;;;;1494617;39;19928;-76
2021/04/03 02:17:48;;;;;;;;;;;;;;;;;;1494717;39;19928;-75
2021/04/03 02:18:49;;;;;;;;;;;;;;;;;;1494458;39;20039;-75
2021/04/03 02:19:50;;;;;;;;;;;;;;;;;;1494571;39;20028;-75
2021/04/03 02:20:51;;;;;;;;;;;;;;;;;;1495163;39;20292;-75
2021/04/03 02:21:52;;;;;;;;;;;;;;;;;;1494707;39;20008;-77
2021/04/03 02:22:53;;;;;;;;;;;;;;;;;;1495133;39;19946;-77
2021/04/03 02:23:55;;;;;;;;;;;;;;;;;;1494603;39;19928;-77
2021/04/03 02:24:56;;;;;;;;;;;;;;;;;;1494248;39;19951;-77
2021/04/03 02:25:57;;;;;;;;;;;;;;;;;;1494945;39;20020;-77
2021/04/03 02:26:58;;;;;;;;;;;;;;;;;;1493544;39;20064;-76
2021/04/03 02:27:59;;;;;;;;;;;;;;;;;;1494598;39;19928;-76
2021/04/03 02:29:00;;;;;;;;;;;;;;;;;;1495133;39;20291;-76
2021/04/03 02:30:12;;;;;;;;;;;;;;;;;;1495346;39;19928;-76
2021/04/03 02:31:13;;;;;;;;;;;;;;;;;;1495192;39;19927;-76
2021/04/03 02:32:14;;;;;;;;;;;;;;;;;;1495256;39;20059;-76
2021/04/03 02:33:15;;;;;;;;;;;;;;;;;;1489794;39;20430;-76
2021/04/03 02:34:16;;;;;;;;;;;;;;;;;;1490501;39;19932;-76
2021/04/03 02:35:17;;;;;;;;;;;;;;;;;;1495115;39;20403;-76
2021/04/03 02:36:18;;;;;;;;;;;;;;;;;;1495372;39;20042;-76
2021/04/03 02:37:19;;;;;;;;;;;;;;;;;;1495167;39;20342;-76
2021/04/03 02:38:20;;;;;;;;;;;;;;;;;;1495375;39;19974;-76
2021/04/03 02:39:21;;;;;;;;;;;;;;;;;;1493887;39;19936;-76
2021/04/03 02:40:23;;;;;;;;;;;;;;;;;;1495162;39;19946;-76
2021/04/03 02:41:30;;;;;;;;;;;;;;;;;;1494501;39;20418;-76
2021/04/03 02:42:32;;;;;;;;;;;;;;;;;;1490738;39;20050;-76
2021/04/03 02:43:40;;;;;;;;;;;;;;;;;;1494409;39;20034;-76
2021/04/03 02:44:51;;;;;;;;;;;;;;;;;;1494630;39;20320;-76
2021/04/03 02:45:52;;;;;;;;;;;;;;;;;;1494498;39;19928;-76
2021/04/03 02:47:12;;;;;;;;;;;;;;;;;;1495234;39;19939;-76
2021/04/03 02:48:16;;;;;;;;;;;;;;;;;;1494873;39;20008;-77
2021/04/03 02:49:21;;;;;;;;;;;;;;;;;;1495140;39;20020;-76
2021/04/03 02:50:24;;;;;;;;;;;;;;;;;;1495303;39;19938;-76
2021/04/03 02:51:30;;;;;;;;;;;;;;;;;;1494685;39;19939;-76
2021/04/03 02:52:33;;;;;;;;;;;;;;;;;;1494136;39;20362;-76
2021/04/03 02:53:34;;;;;;;;;;;;;;;;;;1494967;39;19952;-76
2021/04/03 02:54:37;;;;;;;;;;;;;;;;;;1494996;39;19951;-75
2021/04/03 02:55:38;;;;;;;;;;;;;;;;;;1495029;39;20007;-76
2021/04/03 02:56:41;;;;;;;;;;;;;;;;;;1495303;39;20039;-76
2021/04/03 02:57:42;;;;;;;;;;;;;;;;;;1495478;39;20067;-76
2021/04/03 02:58:44;;;;;;;;;;;;;;;;;;1495846;39;19931;-76
2021/04/03 02:59:53;;;;;;;;;;;;;;;;;;1495755;39;19927;-76
2021/04/03 03:00:56;;;;;;;;;;;;;;;;;;1495942;39;20254;-76
2021/04/03 03:01:58;;;;;;;;;;;;;;;;;;1495728;39;19952;-76
2021/04/03 03:02:59;;;;;;;;;;;;;;;;;;1495903;39;19927;-76
2021/04/03 03:04:01;;;;;;;;;;;;;;;;;;1495310;39;20342;-75
2021/04/03 03:05:05;;;;;;;;;;;;;;;;;;1499268;39;20035;-75
2021/04/03 03:06:07;;;;;;;;;;;;;;;;;;1498972;39;19931;-75
2021/04/03 03:07:09;;;;;;;;;;;;;;;;;;1495969;39;19928;-75
2021/04/03 03:08:11;;;;;;;;;;;;;;;;;;1495528;39;20570;-75
2021/04/03 03:09:16;;;;;;;;;;;;;;;;;;1495050;39;20301;-75
2021/04/03 03:10:18;;;;;;;;;;;;;;;;;;1495072;39;19927;-76
2021/04/03 03:11:21;;;;;;;;;;;;;;;;;;1495854;39;20027;-75
2021/04/03 03:12:24;;;;;;;;;;;;;;;;;;1494874;39;19955;-75
2021/04/03 03:13:26;;;;;;;;;;;;;;;;;;1494996;39;19928;-75
2021/04/03 03:14:26;;;;;;;;;;;;;;;;;;1495627;39;20253;-75
2021/04/03 03:15:30;;;;;;;;;;;;;;;;;;1495773;39;20231;-75
2021/04/03 03:16:31;;;;;;;;;;;;;;;;;;1495109;39;20254;-75
2021/04/03 03:17:32;;;;;;;;;;;;;;;;;;1491546;39;19932;-75
2021/04/03 03:18:34;;;;;;;;;;;;;;;;;;1491047;39;20000;-75
2021/04/03 03:19:36;;;;;;;;;;;;;;;;;;1491499;39;20316;-75
2021/04/03 03:20:37;;;;;;;;;;;;;;;;;;1491402;39;19928;-75
2021/04/03 03:21:38;;;;;;;;;;;;;;;;;;1491538;39;19955;-75
2021/04/03 03:22:41;;;;;;;;;;;;;;;;;;1491002;39;20415;-75
2021/04/03 03:23:42;;;;;;;;;;;;;;;;;;1490787;39;20071;-75
2021/04/03 03:24:43;;;;;;;;;;;;;;;;;;1491380;39;20051;-75
2021/04/03 03:25:45;;;;;;;;;;;;;;;;;;1490423;39;19962;-76
2021/04/03 03:26:46;;;;;;;;;;;;;;;;;;1490893;39;20351;-76
2021/04/03 03:27:47;;;;;;;;;;;;;;;;;;1490688;39;20258;-77
2021/04/03 03:28:48;;;;;;;;;;;;;;;;;;1491064;39;19970;-77
2021/04/03 03:29:53;;;;;;;;;;;;;;;;;;1494807;39;19943;-77
2021/04/03 03:30:54;;;;;;;;;;;;;;;;;;1495764;39;20280;-77
2021/04/03 03:31:55;;;;;;;;;;;;;;;;;;1495561;39;19939;-77
2021/04/03 03:32:56;;;;;;;;;;;;;;;;;;1495597;39;19951;-77
2021/04/03 03:33:57;;;;;;;;;;;;;;;;;;1494998;39;20040;-77
2021/04/03 03:34:58;;;;;;;;;;;;;;;;;;1495299;39;19972;-77
2021/04/03 03:35:59;;;;;;;;;;;;;;;;;;1495680;39;19951;-77
2021/04/03 03:37:00;;;;;;;;;;;;;;;;;;1495293;39;19932;-77
2021/04/03 03:38:01;;;;;;;;;;;;;;;;;;1494826;39;19931;-76
2021/04/03 03:39:04;;;;;;;;;;;;;;;;;;1495854;39;19951;-76
2021/04/03 03:40:05;;;;;;;;;;;;;;;;;;1495236;39;20042;-77
2021/04/03 03:41:06;;;;;;;;;;;;;;;;;;1495642;39;20268;-76
2021/04/03 03:42:08;;;;;;;;;;;;;;;;;;1494839;39;20276;-76
2021/04/03 03:43:15;;;;;;;;;;;;;;;;;;1495684;39;19927;-76
2021/04/03 03:44:16;;;;;;;;;;;;;;;;;;1495699;39;20268;-76
2021/04/03 03:45:18;;;;;;;;;;;;;;;;;;1494947;39;19943;-76
2021/04/03 03:46:18;;;;;;;;;;;;;;;;;;1494954;39;20268;-76
2021/04/03 03:47:19;;;;;;;;;;;;;;;;;;1495318;39;19951;-76
2021/04/03 03:48:20;;;;;;;;;;;;;;;;;;1494582;39;20029;-75
2021/04/03 03:49:21;;;;;;;;;;;;;;;;;;1495803;39;19940;-75
2021/04/03 03:50:23;;;;;;;;;;;;;;;;;;1495636;39;19942;-75
2021/04/03 03:51:24;;;;;;;;;;;;;;;;;;1495873;39;20175;-75
2021/04/03 03:52:25;;;;;;;;;;;;;;;;;;1495668;39;19931;-75
2021/04/03 03:53:26;;;;;;;;;;;;;;;;;;1495573;39;19955;-75
2021/04/03 03:54:27;;;;;;;;;;;;;;;;;;1494255;39;20022;-75
2021/04/03 03:55:28;;;;;;;;;;;;;;;;;;1495827;39;20124;-76
2021/04/03 03:56:29;;;;;;;;;;;;;;;;;;1495416;39;19966;-76
2021/04/03 03:57:30;;;;;;;;;;;;;;;;;;1494900;39;19932;-75
2021/04/03 03:58:32;;;;;;;;;;;;;;;;;;1495415;39;19942;-75
2021/04/03 03:59:33;;;;;;;;;;;;;;;;;;1495291;39;20112;-75
2021/04/03 04:00:34;;;;;;;;;;;;;;;;;;1495511;39;19931;-74
2021/04/03 04:01:35;;;;;;;;;;;;;;;;;;1495702;39;20042;-74
2021/04/03 04:02:36;;;;;;;;;;;;;;;;;;1495627;39;19932;-75
2021/04/03 04:03:37;;;;;;;;;;;;;;;;;;1494892;39;19935;-74
2021/04/03 04:04:38;;;;;;;;;;;;;;;;;;1494962;39;20271;-75
2021/04/03 04:05:39;;;;;;;;;;;;;;;;;;1495274;39;20049;-75
2021/04/03 04:06:40;;;;;;;;;;;;;;;;;;1494625;39;20039;-75
2021/04/03 04:07:41;;;;;;;;;;;;;;;;;;1495490;39;19935;-75
2021/04/03 04:08:43;;;;;;;;;;;;;;;;;;1494983;39;19928;-75
2021/04/03 04:09:44;;;;;;;;;;;;;;;;;;1494392;39;20349;-75
2021/04/03 04:10:45;;;;;;;;;;;;;;;;;;1495466;39;19928;-75
2021/04/03 04:11:46;;;;;;;;;;;;;;;;;;1495168;39;20347;-75
2021/04/03 04:12:47;;;;;;;;;;;;;;;;;;1494982;39;20040;-75
2021/04/03 04:13:48;;;;;;;;;;;;;;;;;;1495017;39;20082;-75
2021/04/03 04:14:49;;;;;;;;;;;;;;;;;;1495559;39;20264;-75
2021/04/03 04:15:53;;;;;;;;;;;;;;;;;;1495626;39;19942;-75
2021/04/03 04:16:54;;;;;;;;;;;;;;;;;;1495505;39;19955;-75
2021/04/03 04:17:55;;;;;;;;;;;;;;;;;;1495418;39;19932;-75
2021/04/03 04:18:56;;;;;;;;;;;;;;;;;;1494579;39;19955;-76
2021/04/03 04:19:57;;;;;;;;;;;;;;;;;;1494911;39;20145;-75
2021/04/03 04:20:58;;;;;;;;;;;;;;;;;;1495015;39;19932;-75
2021/04/03 04:22:00;;;;;;;;;;;;;;;;;;1495529;39;19928;-75
2021/04/03 04:23:01;;;;;;;;;;;;;;;;;;1495650;39;20359;-75
2021/04/03 04:24:02;;;;;;;;;;;;;;;;;;1495390;39;19932;-75
2021/04/03 04:25:03;;;;;;;;;;;;;;;;;;1495260;39;19951;-75
2021/04/03 04:26:04;;;;;;;;;;;;;;;;;;1494282;39;20043;-76
2021/04/03 04:27:06;;;;;;;;;;;;;;;;;;1495036;39;19943;-77
2021/04/03 04:28:07;;;;;;;;;;;;;;;;;;1495460;39;20260;-76
2021/04/03 04:29:07;;;;;;;;;;;;;;;;;;1495636;39;20043;-76
2021/04/03 04:30:09;;;;;;;;;;;;;;;;;;1495404;39;19932;-75
2021/04/03 04:31:10;;;;;;;;;;;;;;;;;;1495741;39;20315;-76
2021/04/03 04:32:11;;;;;;;;;;;;;;;;;;1493871;39;19936;-75
2021/04/03 04:33:12;;;;;;;;;;;;;;;;;;1494959;39;20033;-75
2021/04/03 04:34:13;;;;;;;;;;;;;;;;;;1494759;39;20009;-75
2021/04/03 04:35:15;;;;;;;;;;;;;;;;;;1495022;39;19975;-75
2021/04/03 04:36:16;;;;;;;;;;;;;;;;;;1495667;39;19951;-75
2021/04/03 04:37:16;;;;;;;;;;;;;;;;;;1495706;39;20168;-75
2021/04/03 04:38:18;;;;;;;;;;;;;;;;;;1495392;39;19951;-76
2021/04/03 04:39:19;;;;;;;;;;;;;;;;;;1495583;39;20036;-75
2021/04/03 04:40:20;;;;;;;;;;;;;;;;;;1495046;39;19947;-75
2021/04/03 04:41:21;;;;;;;;;;;;;;;;;;1495565;39;19928;-75
2021/04/03 04:42:22;;;;;;;;;;;;;;;;;;1494860;39;19939;-75
2021/04/03 04:43:25;;;;;;;;;;;;;;;;;;1494958;39;19933;-75
2021/04/03 04:44:26;;;;;;;;;;;;;;;;;;1493739;39;20035;-75
2021/04/03 04:45:27;;;;;;;;;;;;;;;;;;1495058;39;20466;-75
2021/04/03 04:46:28;;;;;;;;;;;;;;;;;;1490708;39;19932;-76
2021/04/03 04:47:29;;;;;;;;;;;;;;;;;;1490833;39;19932;-76
2021/04/03 04:48:30;;;;;;;;;;;;;;;;;;1495143;39;19932;-76
2021/04/03 04:49:30;;;;;;;;;;;;;;;;;;1495599;39;20005;-75
2021/04/03 04:50:31;;;;;;;;;;;;;;;;;;1495494;39;20112;-75
2021/04/03 04:51:32;;;;;;;;;;;;;;;;;;1495690;39;20063;-76
2021/04/03 04:52:34;;;;;;;;;;;;;;;;;;1495554;39;20040;-76
2021/04/03 04:53:35;;;;;;;;;;;;;;;;;;1495570;39;19927;-76
2021/04/03 04:54:36;;;;;;;;;;;;;;;;;;1494516;39;19955;-76
2021/04/03 04:55:37;;;;;;;;;;;;;;;;;;1494865;39;20384;-76
2021/04/03 04:56:38;;;;;;;;;;;;;;;;;;1494514;39;20059;-76
2021/04/03 04:57:39;;;;;;;;;;;;;;;;;;1495590;39;20453;-75
2021/04/03 04:58:40;;;;;;;;;;;;;;;;;;1494815;39;20018;-75
2021/04/03 04:59:41;;;;;;;;;;;;;;;;;;1494679;39;19947;-75
2021/04/03 05:00:42;;;;;;;;;;;;;;;;;;1495482;39;19928;-75
2021/04/03 05:01:43;;;;;;;;;;;;;;;;;;1495589;39;19942;-75
2021/04/03 05:02:43;;;;;;;;;;;;;;;;;;1494736;39;20156;-74
2021/04/03 05:03:44;;;;;;;;;;;;;;;;;;1494833;39;20232;-75
2021/04/03 05:04:45;;;;;;;;;;;;;;;;;;1495478;39;20034;-75
2021/04/03 05:05:46;;;;;;;;;;;;;;;;;;1495109;39;19966;-75
2021/04/03 05:06:47;;;;;;;;;;;;;;;;;;1495478;39;19957;-75
2021/04/03 05:07:48;;;;;;;;;;;;;;;;;;1494577;39;19931;-75
2021/04/03 05:08:49;;;;;;;;;;;;;;;;;;1493883;39;20013;-75
2021/04/03 05:09:50;;;;;;;;;;;;;;;;;;1495196;39;19955;-75
2021/04/03 05:10:51;;;;;;;;;;;;;;;;;;1494921;39;19942;-75
2021/04/03 05:11:52;;;;;;;;;;;;;;;;;;1494848;39;19953;-76
2021/04/03 05:12:53;;;;;;;;;;;;;;;;;;1495536;39;19931;-75
2021/04/03 05:13:54;;;;;;;;;;;;;;;;;;1495337;39;19946;-75
2021/04/03 05:14:55;;;;;;;;;;;;;;;;;;1494865;39;19927;-74
2021/04/03 05:15:56;;;;;;;;;;;;;;;;;;1494752;39;20004;-74
2021/04/03 05:16:57;;;;;;;;;;;;;;;;;;1495465;39;20031;-74
2021/04/03 05:17:58;;;;;;;;;;;;;;;;;;1494913;39;20220;-74
2021/04/03 05:18:59;;;;;;;;;;;;;;;;;;1495647;39;19931;-74
2021/04/03 05:20:00;;;;;;;;;;;;;;;;;;1494911;39;20035;-74
2021/04/03 05:21:03;;;;;;;;;;;;;;;;;;1495171;39;20271;-75
2021/04/03 05:22:04;;;;;;;;;;;;;;;;;;1493715;39;20078;-76
2021/04/03 05:23:05;;;;;;;;;;;;;;;;;;1494840;39;20034;-75
2021/04/03 05:24:06;;;;;;;;;;;;;;;;;;1495362;39;19959;-75
2021/04/03 05:25:08;;;;;;;;;;;;;;;;;;1495086;39;20067;-75
2021/04/03 05:26:09;;;;;;;;;;;;;;;;;;1494844;39;20054;-76
2021/04/03 05:27:10;;;;;;;;;;;;;;;;;;1494849;39;19928;-76
2021/04/03 05:28:13;;;;;;;;;;;;;;;;;;1490403;39;20025;-75
2021/04/03 05:29:14;;;;;;;;;;;;;;;;;;1494928;39;19928;-75
2021/04/03 05:30:15;;;;;;;;;;;;;;;;;;1495408;39;19935;-76
2021/04/03 05:31:20;;;;;;;;;;;;;;;;;;1494975;39;19928;-76
2021/04/03 05:32:22;;;;;;;;;;;;;;;;;;1494775;39;19928;-76
2021/04/03 05:33:23;;;;;;;;;;;;;;;;;;1495379;39;20191;-76
2021/04/03 05:34:24;;;;;;;;;;;;;;;;;;1494343;39;19931;-76
2021/04/03 05:35:44;;;;;;;;;;;;;;;;;;1494786;39;20018;-76
2021/04/03 05:36:45;;;;;;;;;;;;;;;;;;1494917;39;19946;-76
2021/04/03 05:37:46;;;;;;;;;;;;;;;;;;1494991;39;20091;-76
2021/04/03 05:38:47;;;;;;;;;;;;;;;;;;1494819;39;19932;-76
2021/04/03 05:39:48;;;;;;;;;;;;;;;;;;1494525;39;19928;-76
2021/04/03 05:40:49;;;;;;;;;;;;;;;;;;1495265;39;19952;-76
2021/04/03 05:41:50;;;;;;;;;;;;;;;;;;1495504;39;19943;-76
2021/04/03 05:42:52;;;;;;;;;;;;;;;;;;1495323;39;19932;-75
2021/04/03 05:43:53;;;;;;;;;;;;;;;;;;1494655;39;19962;-75
2021/04/03 05:44:54;;;;;;;;;;;;;;;;;;1494799;39;20022;-75
2021/04/03 05:45:57;;;;;;;;;;;;;;;;;;1495025;39;19947;-76
2021/04/03 05:46:58;;;;;;;;;;;;;;;;;;1493726;39;19955;-76
2021/04/03 05:47:59;;;;;;;;;;;;;;;;;;1490283;39;19951;-76
2021/04/03 05:49:00;;;;;;;;;;;;;;;;;;1490625;39;19928;-76
2021/04/03 05:50:03;;;;;;;;;;;;;;;;;;1495424;39;20035;-75
2021/04/03 05:51:05;;;;;;;;;;;;;;;;;;1495263;39;20020;-76
2021/04/03 05:52:06;;;;;;;;;;;;;;;;;;1495364;39;19927;-76
2021/04/03 05:53:07;;;;;;;;;;;;;;;;;;1494421;39;20377;-75
2021/04/03 05:54:08;;;;;;;;;;;;;;;;;;1495402;39;19928;-76
2021/04/03 05:55:09;;;;;;;;;;;;;;;;;;1495027;39;19928;-76
2021/04/03 05:56:10;;;;;;;;;;;;;;;;;;1494696;39;19928;-76
2021/04/03 05:57:11;;;;;;;;;;;;;;;;;;1494696;39;19943;-76
2021/04/03 05:58:15;;;;;;;;;;;;;;;;;;1495404;39;19942;-76
2021/04/03 05:59:16;;;;;;;;;;;;;;;;;;1494334;39;19962;-76
2021/04/03 06:00:17;;;;;;;;;;;;;;;;;;1495258;39;19936;-76
2021/04/03 06:01:18;;;;;;;;;;;;;;;;;;1490501;39;19960;-75
2021/04/03 06:02:19;;;;;;;;;;;;;;;;;;1490678;39;20252;-75
2021/04/03 06:03:21;;;;;;;;;;;;;;;;;;1495047;39;19951;-75
2021/04/03 06:04:22;;;;;;;;;;;;;;;;;;1495527;39;20260;-75
2021/04/03 06:05:23;;;;;;;;;;;;;;;;;;1495220;39;20380;-75
2021/04/03 06:06:25;;;;;;;;;;;;;;;;;;1493977;39;19939;-76
2021/04/03 06:07:27;;;;;;;;;;;;;;;;;;1494676;39;19951;-76
2021/04/03 06:08:28;;;;;;;;;;;;;;;;;;1495321;39;20208;-76
2021/04/03 06:09:29;;;;;;;;;;;;;;;;;;1494522;39;19927;-75
2021/04/03 06:10:30;;;;;;;;;;;;;;;;;;1493909;39;20047;-74
2021/04/03 06:11:42;;;;;;;;;;;;;;;;;;1494271;39;19932;-75
2021/04/03 06:12:44;;;;;;;;;;;;;;;;;;1495380;39;20287;-74
2021/04/03 06:14:00;;;;;;;;;;;;;;;;;;1494477;39;20038;-75
2021/04/03 06:15:01;;;;;;;;;;;;;;;;;;1494991;39;19952;-74
2021/04/03 06:16:22;;;;;;;;;;;;;;;;;;1494585;39;19955;-75
2021/04/03 06:17:24;;;;;;;;;;;;;;;;;;1495365;39;19928;-75
2021/04/03 06:18:25;;;;;;;;;;;;;;;;;;1489942;39;19928;-75
2021/04/03 06:19:26;;;;;;;;;;;;;;;;;;1490602;39;20056;-74
2021/04/03 06:20:33;;;;;;;;;;;;;;;;;;1495225;39;19970;-74
2021/04/03 06:21:34;;;;;;;;;;;;;;;;;;1494828;39;19947;-74
2021/04/03 06:22:45;;;;;;;;;;;;;;;;;;1495205;39;19931;-75
2021/04/03 06:23:46;;;;;;;;;;;;;;;;;;1494328;39;20071;-74
2021/04/03 06:24:47;;;;;;;;;;;;;;;;;;1494770;39;19942;-74
2021/04/03 06:25:53;;;;;;;;;;;;;;;;;;1494607;39;20167;-74
2021/04/03 06:26:55;;;;;;;;;;;;;;;;;;1495067;39;20055;-75
2021/04/03 06:28:05;;;;;;;;;;;;;;;;;;1495234;39;20059;-75
2021/04/03 06:29:27;;;;;;;;;;;;;;;;;;1495271;39;20042;-75
2021/04/03 06:30:30;;;;;;;;;;;;;;;;;;1495125;39;20055;-75
2021/04/03 06:31:38;;;;;;;;;;;;;;;;;;1494500;39;19927;-75
2021/04/03 06:32:40;;;;;;;;;;;;;;;;;;1494830;39;19931;-75
2021/04/03 06:33:41;;;;;;;;;;;;;;;;;;1495271;39;20034;-75
2021/04/03 06:34:42;;;;;;;;;;;;;;;;;;1494648;39;19932;-75
2021/04/03 06:35:43;;;;;;;;;;;;;;;;;;1495855;39;19959;-75
2021/04/03 06:36:44;;;;;;;;;;;;;;;;;;1493938;39;20374;-75
2021/04/03 06:37:45;;;;;;;;;;;;;;;;;;1495233;39;20070;-74
2021/04/03 06:38:46;;;;;;;;;;;;;;;;;;1495775;39;19931;-75
2021/04/03 06:39:55;;;;;;;;;;;;;;;;;;1495816;39;19927;-75
2021/04/03 06:41:14;;;;;;;;;;;;;;;;;;1495769;39;20057;-75
2021/04/03 06:42:34;;;;;;;;;;;;;;;;;;1495266;39;20026;-75
2021/04/03 06:43:35;;;;;;;;;;;;;;;;;;1495220;39;19928;-75
2021/04/03 06:44:36;;;;;;;;;;;;;;;;;;1495261;39;20296;-75
2021/04/03 06:45:37;;;;;;;;;;;;;;;;;;1495794;39;19932;-75
2021/04/03 06:46:39;;;;;;;;;;;;;;;;;;1494839;39;19970;-75
2021/04/03 06:47:40;;;;;;;;;;;;;;;;;;1495055;39;19928;-76
2021/04/03 06:48:41;;;;;;;;;;;;;;;;;;1494044;39;19943;-76
2021/04/03 06:49:42;;;;;;;;;;;;;;;;;;1494997;39;20045;-76
2021/04/03 06:50:44;;;;;;;;;;;;;;;;;;1495971;39;19927;-75
2021/04/03 06:51:45;;;;;;;;;;;;;;;;;;1495685;39;19955;-75
2021/04/03 06:52:47;;;;;;;;;;;;;;;;;;1495192;39;20424;-76
2021/04/03 06:53:49;;;;;;;;;;;;;;;;;;1487144;39;19943;-76
2021/04/03 06:54:50;;;;;;;;;;;;;;;;;;1491189;39;20062;-76
2021/04/03 06:55:51;;;;;;;;;;;;;;;;;;1494922;39;20289;-76
2021/04/03 06:56:55;;;;;;;;;;;;;;;;;;1495177;39;20016;-79
2021/04/03 06:57:57;;;;;;;;;;;;;;;;;;1495531;39;19928;-76
2021/04/03 06:58:59;;;;;;;;;;;;;;;;;;1496104;39;20047;-77
2021/04/03 07:00:00;;;;;;;;;;;;;;;;;;1495632;39;19959;-72
2021/04/03 07:01:01;;;;;;;;;;;;;;;;;;1494615;39;20511;-73
2021/04/03 07:02:03;;;;;;;;;;;;;;;;;;1494694;39;20293;-72
2021/04/03 07:03:16;;;;;;;;;;;;;;;;;;1495143;39;20260;-72
2021/04/03 07:04:35;;;;;;;;;;;;;;;;;;1495284;39;19927;-72
2021/04/03 07:05:36;;;;;;;;;;;;;;;;;;1495757;39;20030;-72
2021/04/03 07:06:37;;;;;;;;;;;;;;;;;;1494297;39;19943;-72